sensor_id;sensor_type;location;lat;lon;timestamp;P1;P2;P0
34176;PMS7003;20450;49.074;9.158;2022-12-18T00:00:05;93.00;82.75;52.00
34176;PMS7003;20450;49.074;9.158;2022-12-18T00:02:39;94.25;80.00;48.00
34176;PMS7003;20450;49.074;9.158;2022-12-18T00:05:07;85.75;80.00;51.25
34176;PMS7003;20450;49.074;9.158;2022-12-18T00:07:35;95.00;88.00;54.75
34176;PMS7003;20450;49.074;9.158;2022-12-18T00:10:03;95.50;86.25;58.25
34176;PMS7003;20450;49.074;9.158;2022-12-18T00:12:31;98.50;87.50;54.25
34176;PMS7003;20450;49.074;9.158;2022-12-18T00:14:58;83.75;77.25;52.75
34176;PMS7003;20450;49.074;9.158;2022-12-18T00:17:26;93.50;81.50;53.50
34176;PMS7003;20450;49.074;9.158;2022-12-18T00:19:53;81.25;70.25;47.50
34176;PMS7003;20450;49.074;9.158;2022-12-18T00:22:20;83.75;70.75;47.00
34176;PMS7003;20450;49.074;9.158;2022-12-18T00:24:47;84.75;71.00;44.25
34176;PMS7003;20450;49.074;9.158;2022-12-18T00:27:14;86.00;75.25;47.75
34176;PMS7003;20450;49.074;9.158;2022-12-18T00:29:41;88.75;77.50;51.00
34176;PMS7003;20450;49.074;9.158;2022-12-18T00:32:08;92.75;78.75;55.25
34176;PMS7003;20450;49.074;9.158;2022-12-18T00:34:36;84.50;69.75;49.75
34176;PMS7003;20450;49.074;9.158;2022-12-18T00:37:03;86.25;71.25;47.25
34176;PMS7003;20450;49.074;9.158;2022-12-18T00:39:30;92.00;76.50;50.00
34176;PMS7003;20450;49.074;9.158;2022-12-18T00:41:58;81.00;72.50;49.25
34176;PMS7003;20450;49.074;9.158;2022-12-18T00:44:25;79.75;74.50;49.25
34176;PMS7003;20450;49.074;9.158;2022-12-18T00:46:52;85.50;79.25;51.75
34176;PMS7003;20450;49.074;9.158;2022-12-18T00:49:19;84.00;78.75;53.25
34176;PMS7003;20450;49.074;9.158;2022-12-18T00:51:48;81.25;72.75;50.75
34176;PMS7003;20450;49.074;9.158;2022-12-18T00:54:15;84.25;78.25;49.75
34176;PMS7003;20450;49.074;9.158;2022-12-18T00:56:43;92.50;87.25;53.75
34176;PMS7003;20450;49.074;9.158;2022-12-18T00:59:16;78.25;68.50;47.00
34176;PMS7003;20450;49.074;9.158;2022-12-18T01:01:44;81.00;72.50;48.50
34176;PMS7003;20450;49.074;9.158;2022-12-18T01:04:12;81.75;72.75;48.25
34176;PMS7003;20450;49.074;9.158;2022-12-18T01:06:41;86.00;69.00;44.75
34176;PMS7003;20450;49.074;9.158;2022-12-18T01:09:11;79.00;65.50;42.75
34176;PMS7003;20450;49.074;9.158;2022-12-18T01:11:38;91.50;78.75;51.00
34176;PMS7003;20450;49.074;9.158;2022-12-18T01:14:05;90.25;75.50;52.50
34176;PMS7003;20450;49.074;9.158;2022-12-18T01:16:33;84.75;67.50;41.75
34176;PMS7003;20450;49.074;9.158;2022-12-18T01:18:59;79.75;68.50;43.00
34176;PMS7003;20450;49.074;9.158;2022-12-18T01:21:26;91.25;81.00;49.75
34176;PMS7003;20450;49.074;9.158;2022-12-18T01:23:54;80.50;71.75;48.50
34176;PMS7003;20450;49.074;9.158;2022-12-18T01:26:24;80.75;72.25;46.25
34176;PMS7003;20450;49.074;9.158;2022-12-18T01:28:53;83.25;76.00;50.00
34176;PMS7003;20450;49.074;9.158;2022-12-18T01:31:22;93.00;80.25;49.50
34176;PMS7003;20450;49.074;9.158;2022-12-18T01:33:53;92.00;79.75;51.25
34176;PMS7003;20450;49.074;9.158;2022-12-18T01:36:22;93.00;84.75;52.25
34176;PMS7003;20450;49.074;9.158;2022-12-18T01:38:52;78.75;72.75;47.25
34176;PMS7003;20450;49.074;9.158;2022-12-18T01:41:20;79.75;72.75;48.25
34176;PMS7003;20450;49.074;9.158;2022-12-18T01:43:53;82.75;73.00;50.00
34176;PMS7003;20450;49.074;9.158;2022-12-18T01:46:26;79.75;71.00;49.00
34176;PMS7003;20450;49.074;9.158;2022-12-18T01:48:56;82.25;73.75;46.50
34176;PMS7003;20450;49.074;9.158;2022-12-18T01:51:26;78.50;69.00;45.75
34176;PMS7003;20450;49.074;9.158;2022-12-18T01:53:54;76.25;66.25;45.00
34176;PMS7003;20450;49.074;9.158;2022-12-18T01:56:23;77.25;67.25;43.50
34176;PMS7003;20450;49.074;9.158;2022-12-18T01:58:54;89.25;76.50;48.50
34176;PMS7003;20450;49.074;9.158;2022-12-18T02:01:28;79.50;69.75;46.00
34176;PMS7003;20450;49.074;9.158;2022-12-18T02:04:14;78.25;66.75;44.25
34176;PMS7003;20450;49.074;9.158;2022-12-18T02:06:47;87.75;68.00;44.50
34176;PMS7003;20450;49.074;9.158;2022-12-18T02:09:24;80.75;66.50;46.50
34176;PMS7003;20450;49.074;9.158;2022-12-18T02:12:04;88.00;71.00;47.00
34176;PMS7003;20450;49.074;9.158;2022-12-18T02:14:42;87.50;75.00;47.75
34176;PMS7003;20450;49.074;9.158;2022-12-18T02:17:18;83.50;68.00;46.75
34176;PMS7003;20450;49.074;9.158;2022-12-18T02:19:54;88.00;73.25;45.75
34176;PMS7003;20450;49.074;9.158;2022-12-18T02:22:41;78.50;69.50;46.75
34176;PMS7003;20450;49.074;9.158;2022-12-18T02:25:32;79.75;71.50;48.00
34176;PMS7003;20450;49.074;9.158;2022-12-18T02:28:30;77.75;68.50;45.00
34176;PMS7003;20450;49.074;9.158;2022-12-18T02:31:05;76.25;65.50;45.25
34176;PMS7003;20450;49.074;9.158;2022-12-18T02:33:40;78.00;66.75;44.50
34176;PMS7003;20450;49.074;9.158;2022-12-18T02:36:11;79.75;72.00;46.50
34176;PMS7003;20450;49.074;9.158;2022-12-18T02:38:43;80.75;67.75;44.50
34176;PMS7003;20450;49.074;9.158;2022-12-18T02:41:16;80.00;71.00;45.75
34176;PMS7003;20450;49.074;9.158;2022-12-18T02:43:53;78.75;71.00;50.25
34176;PMS7003;20450;49.074;9.158;2022-12-18T02:46:26;77.75;69.25;43.50
34176;PMS7003;20450;49.074;9.158;2022-12-18T02:49:05;80.25;72.25;50.25
34176;PMS7003;20450;49.074;9.158;2022-12-18T02:51:46;92.25;80.75;51.00
34176;PMS7003;20450;49.074;9.158;2022-12-18T02:54:29;95.00;85.50;54.75
34176;PMS7003;20450;49.074;9.158;2022-12-18T02:57:14;81.25;74.25;48.75
34176;PMS7003;20450;49.074;9.158;2022-12-18T02:59:53;98.50;88.00;56.25
34176;PMS7003;20450;49.074;9.158;2022-12-18T03:02:32;87.50;84.75;52.25
34176;PMS7003;20450;49.074;9.158;2022-12-18T03:05:07;91.50;84.25;56.00
34176;PMS7003;20450;49.074;9.158;2022-12-18T03:07:46;81.75;76.00;48.75
34176;PMS7003;20450;49.074;9.158;2022-12-18T03:10:24;81.00;73.00;47.00
34176;PMS7003;20450;49.074;9.158;2022-12-18T03:13:00;80.50;70.25;48.00
34176;PMS7003;20450;49.074;9.158;2022-12-18T03:15:36;75.75;65.25;47.50
34176;PMS7003;20450;49.074;9.158;2022-12-18T03:18:12;76.25;65.75;43.50
34176;PMS7003;20450;49.074;9.158;2022-12-18T03:20:46;78.50;68.50;46.50
34176;PMS7003;20450;49.074;9.158;2022-12-18T03:23:20;78.25;65.25;44.50
34176;PMS7003;20450;49.074;9.158;2022-12-18T03:25:56;77.75;68.50;45.25
34176;PMS7003;20450;49.074;9.158;2022-12-18T03:28:38;79.00;65.25;42.25
34176;PMS7003;20450;49.074;9.158;2022-12-18T03:31:14;81.75;70.75;47.00
34176;PMS7003;20450;49.074;9.158;2022-12-18T03:33:45;79.25;68.50;47.00
34176;PMS7003;20450;49.074;9.158;2022-12-18T03:36:23;80.25;68.50;43.50
34176;PMS7003;20450;49.074;9.158;2022-12-18T03:38:51;41.00;32.75;21.75
34176;PMS7003;20450;49.074;9.158;2022-12-18T03:41:23;72.50;58.00;40.50
34176;PMS7003;20450;49.074;9.158;2022-12-18T03:44:21;61.50;51.25;31.00
34176;PMS7003;20450;49.074;9.158;2022-12-18T03:46:58;73.75;61.50;39.00
34176;PMS7003;20450;49.074;9.158;2022-12-18T03:49:38;73.25;59.75;41.00
34176;PMS7003;20450;49.074;9.158;2022-12-18T03:52:16;73.50;62.00;43.50
34176;PMS7003;20450;49.074;9.158;2022-12-18T03:54:54;73.00;60.75;41.50
34176;PMS7003;20450;49.074;9.158;2022-12-18T03:57:27;71.50;60.00;42.00
34176;PMS7003;20450;49.074;9.158;2022-12-18T04:00:02;74.00;58.75;36.50
34176;PMS7003;20450;49.074;9.158;2022-12-18T04:02:52;72.25;55.50;38.25
34176;PMS7003;20450;49.074;9.158;2022-12-18T04:05:31;67.75;55.50;38.50
34176;PMS7003;20450;49.074;9.158;2022-12-18T04:08:04;66.25;54.50;36.50
34176;PMS7003;20450;49.074;9.158;2022-12-18T04:10:36;69.50;56.25;39.75
34176;PMS7003;20450;49.074;9.158;2022-12-18T04:13:03;71.25;57.25;39.25
34176;PMS7003;20450;49.074;9.158;2022-12-18T04:15:32;70.25;56.75;37.75
34176;PMS7003;20450;49.074;9.158;2022-12-18T04:18:05;53.25;45.75;35.00
34176;PMS7003;20450;49.074;9.158;2022-12-18T04:20:40;71.50;56.50;37.25
34176;PMS7003;20450;49.074;9.158;2022-12-18T04:23:07;72.00;56.25;40.25
34176;PMS7003;20450;49.074;9.158;2022-12-18T04:25:36;74.50;59.25;36.75
34176;PMS7003;20450;49.074;9.158;2022-12-18T04:28:07;70.25;56.00;37.75
34176;PMS7003;20450;49.074;9.158;2022-12-18T04:30:38;72.25;58.00;38.50
34176;PMS7003;20450;49.074;9.158;2022-12-18T04:33:08;65.50;53.50;36.75
34176;PMS7003;20450;49.074;9.158;2022-12-18T04:35:38;72.00;56.00;34.75
34176;PMS7003;20450;49.074;9.158;2022-12-18T04:38:06;70.50;55.50;36.75
34176;PMS7003;20450;49.074;9.158;2022-12-18T04:40:34;69.25;55.50;37.75
34176;PMS7003;20450;49.074;9.158;2022-12-18T04:43:05;68.00;55.25;37.50
34176;PMS7003;20450;49.074;9.158;2022-12-18T04:45:32;68.75;55.75;37.25
34176;PMS7003;20450;49.074;9.158;2022-12-18T04:48:01;67.00;54.75;36.75
34176;PMS7003;20450;49.074;9.158;2022-12-18T04:50:29;71.75;56.00;36.50
34176;PMS7003;20450;49.074;9.158;2022-12-18T04:52:56;70.75;56.75;36.50
34176;PMS7003;20450;49.074;9.158;2022-12-18T04:55:23;67.25;53.75;35.25
34176;PMS7003;20450;49.074;9.158;2022-12-18T04:57:50;75.00;58.25;36.75
34176;PMS7003;20450;49.074;9.158;2022-12-18T05:00:17;65.25;53.50;36.75
34176;PMS7003;20450;49.074;9.158;2022-12-18T05:02:45;68.50;55.50;35.75
34176;PMS7003;20450;49.074;9.158;2022-12-18T05:05:13;72.50;57.75;37.25
34176;PMS7003;20450;49.074;9.158;2022-12-18T05:07:40;70.25;55.25;35.75
34176;PMS7003;20450;49.074;9.158;2022-12-18T05:10:08;68.75;55.25;36.75
34176;PMS7003;20450;49.074;9.158;2022-12-18T05:12:35;69.50;57.00;37.50
34176;PMS7003;20450;49.074;9.158;2022-12-18T05:15:03;69.75;56.00;37.25
34176;PMS7003;20450;49.074;9.158;2022-12-18T05:17:31;67.25;54.25;36.00
34176;PMS7003;20450;49.074;9.158;2022-12-18T05:19:58;70.50;57.75;37.50
34176;PMS7003;20450;49.074;9.158;2022-12-18T05:22:26;66.25;54.00;35.25
34176;PMS7003;20450;49.074;9.158;2022-12-18T05:24:53;69.00;54.50;35.50
34176;PMS7003;20450;49.074;9.158;2022-12-18T05:27:19;64.00;51.25;36.75
34176;PMS7003;20450;49.074;9.158;2022-12-18T05:29:47;70.25;55.00;36.00
34176;PMS7003;20450;49.074;9.158;2022-12-18T05:32:14;65.00;53.00;35.50
34176;PMS7003;20450;49.074;9.158;2022-12-18T05:34:41;67.00;55.00;37.25
34176;PMS7003;20450;49.074;9.158;2022-12-18T05:37:08;68.25;54.50;37.25
34176;PMS7003;20450;49.074;9.158;2022-12-18T05:39:36;66.25;54.50;36.25
34176;PMS7003;20450;49.074;9.158;2022-12-18T05:42:03;63.25;51.75;35.75
34176;PMS7003;20450;49.074;9.158;2022-12-18T05:44:31;71.25;58.00;38.50
34176;PMS7003;20450;49.074;9.158;2022-12-18T05:46:58;73.00;59.75;39.25
34176;PMS7003;20450;49.074;9.158;2022-12-18T05:49:25;65.50;51.25;35.75
34176;PMS7003;20450;49.074;9.158;2022-12-18T05:51:52;77.50;61.50;41.75
34176;PMS7003;20450;49.074;9.158;2022-12-18T05:54:19;74.50;59.75;38.25
34176;PMS7003;20450;49.074;9.158;2022-12-18T05:56:48;70.00;54.75;36.50
34176;PMS7003;20450;49.074;9.158;2022-12-18T05:59:14;75.75;62.00;39.75
34176;PMS7003;20450;49.074;9.158;2022-12-18T06:01:41;66.50;55.00;37.75
34176;PMS7003;20450;49.074;9.158;2022-12-18T06:04:08;71.25;55.75;36.25
34176;PMS7003;20450;49.074;9.158;2022-12-18T06:06:35;74.25;59.00;39.50
34176;PMS7003;20450;49.074;9.158;2022-12-18T06:09:02;67.50;54.75;36.75
34176;PMS7003;20450;49.074;9.158;2022-12-18T06:11:30;67.75;54.00;35.25
34176;PMS7003;20450;49.074;9.158;2022-12-18T06:13:58;73.25;59.50;41.00
34176;PMS7003;20450;49.074;9.158;2022-12-18T06:16:26;72.25;56.50;40.00
34176;PMS7003;20450;49.074;9.158;2022-12-18T06:18:55;72.50;62.25;42.00
34176;PMS7003;20450;49.074;9.158;2022-12-18T06:21:23;74.50;64.50;40.75
34176;PMS7003;20450;49.074;9.158;2022-12-18T06:23:50;64.75;52.75;34.25
34176;PMS7003;20450;49.074;9.158;2022-12-18T06:26:17;67.25;53.25;36.00
34176;PMS7003;20450;49.074;9.158;2022-12-18T06:28:50;72.75;60.00;40.50
34176;PMS7003;20450;49.074;9.158;2022-12-18T06:31:18;74.00;58.75;38.25
34176;PMS7003;20450;49.074;9.158;2022-12-18T06:33:45;71.00;54.25;35.75
34176;PMS7003;20450;49.074;9.158;2022-12-18T06:36:12;69.75;56.25;37.75
34176;PMS7003;20450;49.074;9.158;2022-12-18T06:38:40;58.50;49.00;27.75
34176;PMS7003;20450;49.074;9.158;2022-12-18T06:41:10;67.25;56.50;37.75
34176;PMS7003;20450;49.074;9.158;2022-12-18T06:43:39;70.25;57.00;37.75
34176;PMS7003;20450;49.074;9.158;2022-12-18T06:46:07;75.50;61.25;39.00
34176;PMS7003;20450;49.074;9.158;2022-12-18T06:48:37;78.50;64.25;43.25
34176;PMS7003;20450;49.074;9.158;2022-12-18T06:51:04;72.50;60.25;39.75
34176;PMS7003;20450;49.074;9.158;2022-12-18T06:53:31;72.00;59.25;41.25
34176;PMS7003;20450;49.074;9.158;2022-12-18T06:56:00;81.25;73.25;48.25
34176;PMS7003;20450;49.074;9.158;2022-12-18T06:58:35;82.50;78.25;50.75
34176;PMS7003;20450;49.074;9.158;2022-12-18T07:01:02;68.00;55.50;41.00
34176;PMS7003;20450;49.074;9.158;2022-12-18T07:03:32;83.00;65.50;42.50
34176;PMS7003;20450;49.074;9.158;2022-12-18T07:06:01;83.75;68.00;44.25
34176;PMS7003;20450;49.074;9.158;2022-12-18T07:08:28;85.00;68.50;42.25
34176;PMS7003;20450;49.074;9.158;2022-12-18T07:10:55;76.75;62.75;42.25
34176;PMS7003;20450;49.074;9.158;2022-12-18T07:13:22;74.00;59.25;39.25
34176;PMS7003;20450;49.074;9.158;2022-12-18T07:15:49;78.25;62.00;42.50
34176;PMS7003;20450;49.074;9.158;2022-12-18T07:18:16;73.75;60.25;40.25
34176;PMS7003;20450;49.074;9.158;2022-12-18T07:20:43;77.75;62.75;40.50
34176;PMS7003;20450;49.074;9.158;2022-12-18T07:23:12;65.00;51.00;34.25
34176;PMS7003;20450;49.074;9.158;2022-12-18T07:25:39;81.00;63.75;42.25
34176;PMS7003;20450;49.074;9.158;2022-12-18T07:28:06;89.00;80.00;52.75
34176;PMS7003;20450;49.074;9.158;2022-12-18T07:30:39;83.00;72.50;47.00
34176;PMS7003;20450;49.074;9.158;2022-12-18T07:33:07;73.00;58.75;39.50
34176;PMS7003;20450;49.074;9.158;2022-12-18T07:35:34;71.50;58.00;37.75
34176;PMS7003;20450;49.074;9.158;2022-12-18T07:38:01;67.50;54.75;35.00
34176;PMS7003;20450;49.074;9.158;2022-12-18T07:40:29;66.00;53.75;35.00
34176;PMS7003;20450;49.074;9.158;2022-12-18T07:42:56;65.00;53.75;34.75
34176;PMS7003;20450;49.074;9.158;2022-12-18T07:45:23;83.25;66.50;42.50
34176;PMS7003;20450;49.074;9.158;2022-12-18T07:47:50;72.00;57.50;38.75
34176;PMS7003;20450;49.074;9.158;2022-12-18T07:50:17;72.00;57.50;38.50
34176;PMS7003;20450;49.074;9.158;2022-12-18T07:52:44;73.00;58.25;39.00
34176;PMS7003;20450;49.074;9.158;2022-12-18T07:55:11;69.75;58.50;37.25
34176;PMS7003;20450;49.074;9.158;2022-12-18T07:57:39;44.50;38.50;25.00
34176;PMS7003;20450;49.074;9.158;2022-12-18T08:00:16;76.50;60.50;38.50
34176;PMS7003;20450;49.074;9.158;2022-12-18T08:02:44;72.50;56.50;36.50
34176;PMS7003;20450;49.074;9.158;2022-12-18T08:05:11;73.25;59.75;37.00
34176;PMS7003;20450;49.074;9.158;2022-12-18T08:07:38;65.00;52.50;37.00
34176;PMS7003;20450;49.074;9.158;2022-12-18T08:10:06;69.50;58.00;38.75
34176;PMS7003;20450;49.074;9.158;2022-12-18T08:12:34;69.50;56.50;36.25
34176;PMS7003;20450;49.074;9.158;2022-12-18T08:15:02;66.25;56.50;37.00
34176;PMS7003;20450;49.074;9.158;2022-12-18T08:17:31;66.25;54.00;34.50
34176;PMS7003;20450;49.074;9.158;2022-12-18T08:19:58;67.00;55.00;35.00
34176;PMS7003;20450;49.074;9.158;2022-12-18T08:22:25;67.75;53.50;37.25
34176;PMS7003;20450;49.074;9.158;2022-12-18T08:24:52;83.50;65.75;45.50
34176;PMS7003;20450;49.074;9.158;2022-12-18T08:27:19;75.75;59.50;38.50
34176;PMS7003;20450;49.074;9.158;2022-12-18T08:29:54;71.00;56.50;38.25
34176;PMS7003;20450;49.074;9.158;2022-12-18T08:32:23;78.25;60.50;38.25
34176;PMS7003;20450;49.074;9.158;2022-12-18T08:34:50;67.75;56.75;38.00
34176;PMS7003;20450;49.074;9.158;2022-12-18T08:37:17;69.00;55.75;36.00
34176;PMS7003;20450;49.074;9.158;2022-12-18T08:39:44;65.00;53.50;35.00
34176;PMS7003;20450;49.074;9.158;2022-12-18T08:42:11;68.50;55.75;38.75
34176;PMS7003;20450;49.074;9.158;2022-12-18T08:44:38;64.50;52.50;35.75
34176;PMS7003;20450;49.074;9.158;2022-12-18T08:47:06;62.75;52.00;33.75
34176;PMS7003;20450;49.074;9.158;2022-12-18T08:49:35;55.33;47.33;32.00
34176;PMS7003;20450;49.074;9.158;2022-12-18T08:52:02;54.67;46.67;32.00
34176;PMS7003;20450;49.074;9.158;2022-12-18T08:54:29;60.67;49.33;33.67
34176;PMS7003;20450;49.074;9.158;2022-12-18T08:56:56;66.00;52.00;34.67
34176;PMS7003;20450;49.074;9.158;2022-12-18T08:59:23;63.67;50.00;33.67
34176;PMS7003;20450;49.074;9.158;2022-12-18T09:01:50;60.67;51.00;34.00
34176;PMS7003;20450;49.074;9.158;2022-12-18T09:04:19;62.67;51.33;34.00
34176;PMS7003;20450;49.074;9.158;2022-12-18T09:06:48;65.67;52.33;35.67
34176;PMS7003;20450;49.074;9.158;2022-12-18T09:09:15;66.67;53.00;36.00
34176;PMS7003;20450;49.074;9.158;2022-12-18T09:11:43;62.67;52.00;34.33
34176;PMS7003;20450;49.074;9.158;2022-12-18T09:14:10;57.33;48.00;33.00
34176;PMS7003;20450;49.074;9.158;2022-12-18T09:16:36;65.00;50.33;33.67
34176;PMS7003;20450;49.074;9.158;2022-12-18T09:19:05;64.67;53.00;34.33
34176;PMS7003;20450;49.074;9.158;2022-12-18T09:21:33;58.33;48.00;33.67
34176;PMS7003;20450;49.074;9.158;2022-12-18T09:24:04;60.67;48.67;32.67
34176;PMS7003;20450;49.074;9.158;2022-12-18T09:26:34;53.00;44.33;31.33
34176;PMS7003;20450;49.074;9.158;2022-12-18T09:29:02;64.00;51.67;35.67
34176;PMS7003;20450;49.074;9.158;2022-12-18T09:31:29;61.33;50.33;34.00
34176;PMS7003;20450;49.074;9.158;2022-12-18T09:33:56;64.00;52.00;34.33
34176;PMS7003;20450;49.074;9.158;2022-12-18T09:36:23;63.33;50.00;34.33
34176;PMS7003;20450;49.074;9.158;2022-12-18T09:38:50;61.00;51.00;35.00
34176;PMS7003;20450;49.074;9.158;2022-12-18T09:41:25;63.00;51.00;35.33
34176;PMS7003;20450;49.074;9.158;2022-12-18T09:44:10;63.33;52.33;35.00
34176;PMS7003;20450;49.074;9.158;2022-12-18T09:46:47;62.50;51.25;33.00
34176;PMS7003;20450;49.074;9.158;2022-12-18T09:49:27;66.75;54.50;36.75
34176;PMS7003;20450;49.074;9.158;2022-12-18T09:52:00;67.75;54.25;36.00
34176;PMS7003;20450;49.074;9.158;2022-12-18T09:54:35;68.00;56.00;39.00
34176;PMS7003;20450;49.074;9.158;2022-12-18T09:57:10;63.50;53.50;35.00
34176;PMS7003;20450;49.074;9.158;2022-12-18T09:59:41;65.00;51.50;35.00
34176;PMS7003;20450;49.074;9.158;2022-12-18T10:02:14;58.00;49.00;33.00
34176;PMS7003;20450;49.074;9.158;2022-12-18T10:04:43;60.25;49.25;32.00
34176;PMS7003;20450;49.074;9.158;2022-12-18T10:07:22;54.25;46.00;31.00
34176;PMS7003;20450;49.074;9.158;2022-12-18T10:10:07;62.50;50.00;31.50
34176;PMS7003;20450;49.074;9.158;2022-12-18T10:12:49;59.00;47.75;31.25
34176;PMS7003;20450;49.074;9.158;2022-12-18T10:15:31;51.00;42.50;26.25
34176;PMS7003;20450;49.074;9.158;2022-12-18T10:18:10;56.00;46.25;30.75
34176;PMS7003;20450;49.074;9.158;2022-12-18T10:20:56;52.33;45.00;29.33
34176;PMS7003;20450;49.074;9.158;2022-12-18T10:23:37;51.33;43.00;32.00
34176;PMS7003;20450;49.074;9.158;2022-12-18T10:26:18;50.67;44.00;30.00
34176;PMS7003;20450;49.074;9.158;2022-12-18T10:28:48;57.33;49.00;32.00
34176;PMS7003;20450;49.074;9.158;2022-12-18T10:31:19;61.33;51.00;32.33
34176;PMS7003;20450;49.074;9.158;2022-12-18T10:33:50;52.00;44.67;30.00
34176;PMS7003;20450;49.074;9.158;2022-12-18T10:36:20;56.67;47.67;31.00
34176;PMS7003;20450;49.074;9.158;2022-12-18T10:38:49;59.33;49.00;33.33
34176;PMS7003;20450;49.074;9.158;2022-12-18T10:41:25;53.00;44.33;29.67
34176;PMS7003;20450;49.074;9.158;2022-12-18T10:46:49;48.00;41.33;27.67
34176;PMS7003;20450;49.074;9.158;2022-12-18T10:49:22;47.67;40.67;29.00
34176;PMS7003;20450;49.074;9.158;2022-12-18T10:52:03;52.33;42.67;27.00
34176;PMS7003;20450;49.074;9.158;2022-12-18T10:54:39;53.67;42.67;29.00
34176;PMS7003;20450;49.074;9.158;2022-12-18T10:57:17;52.00;43.67;29.67
34176;PMS7003;20450;49.074;9.158;2022-12-18T11:00:03;53.00;42.67;30.00
34176;PMS7003;20450;49.074;9.158;2022-12-18T11:02:53;42.00;37.00;24.00
34176;PMS7003;20450;49.074;9.158;2022-12-18T11:05:25;52.00;42.00;29.00
34176;PMS7003;20450;49.074;9.158;2022-12-18T11:07:55;46.00;39.50;28.00
34176;PMS7003;20450;49.074;9.158;2022-12-18T11:10:25;42.50;36.75;24.25
34176;PMS7003;20450;49.074;9.158;2022-12-18T11:13:08;44.75;38.25;25.50
34176;PMS7003;20450;49.074;9.158;2022-12-18T11:15:39;43.75;38.50;26.50
34176;PMS7003;20450;49.074;9.158;2022-12-18T11:18:15;47.25;40.50;23.25
34176;PMS7003;20450;49.074;9.158;2022-12-18T11:20:50;40.50;33.75;22.50
34176;PMS7003;20450;49.074;9.158;2022-12-18T11:23:24;37.67;34.67;23.00
34176;PMS7003;20450;49.074;9.158;2022-12-18T11:25:53;41.67;36.00;22.67
34176;PMS7003;20450;49.074;9.158;2022-12-18T11:31:20;41.00;37.67;25.00
34176;PMS7003;20450;49.074;9.158;2022-12-18T11:33:57;33.00;29.33;15.33
34176;PMS7003;20450;49.074;9.158;2022-12-18T11:36:51;39.33;36.00;23.67
34176;PMS7003;20450;49.074;9.158;2022-12-18T11:39:19;33.67;33.00;22.00
34176;PMS7003;20450;49.074;9.158;2022-12-18T11:42:01;31.67;29.00;17.33
34176;PMS7003;20450;49.074;9.158;2022-12-18T11:44:41;33.33;31.33;20.67
34176;PMS7003;20450;49.074;9.158;2022-12-18T11:47:25;31.33;30.33;20.00
34176;PMS7003;20450;49.074;9.158;2022-12-18T11:50:14;35.33;34.00;21.33
34176;PMS7003;20450;49.074;9.158;2022-12-18T11:52:47;15.00;13.67;2.33
34176;PMS7003;20450;49.074;9.158;2022-12-18T11:55:27;43.33;38.33;24.67
34176;PMS7003;20450;49.074;9.158;2022-12-18T11:58:07;37.33;34.67;21.67
34176;PMS7003;20450;49.074;9.158;2022-12-18T12:01:00;17.67;14.00;5.00
34176;PMS7003;20450;49.074;9.158;2022-12-18T12:06:48;41.33;36.00;24.00
34176;PMS7003;20450;49.074;9.158;2022-12-18T12:09:31;32.33;32.33;21.67
34176;PMS7003;20450;49.074;9.158;2022-12-18T12:12:21;36.33;33.33;24.00
34176;PMS7003;20450;49.074;9.158;2022-12-18T12:15:04;42.67;38.00;24.67
34176;PMS7003;20450;49.074;9.158;2022-12-18T12:17:45;37.67;34.00;22.00
34176;PMS7003;20450;49.074;9.158;2022-12-18T12:20:24;41.33;36.00;22.00
34176;PMS7003;20450;49.074;9.158;2022-12-18T12:23:15;38.00;36.00;22.33
34176;PMS7003;20450;49.074;9.158;2022-12-18T12:25:57;38.33;36.00;25.00
34176;PMS7003;20450;49.074;9.158;2022-12-18T12:28:35;41.67;36.00;24.00
34176;PMS7003;20450;49.074;9.158;2022-12-18T12:31:24;40.67;35.67;22.00
34176;PMS7003;20450;49.074;9.158;2022-12-18T12:34:14;44.33;37.33;23.33
34176;PMS7003;20450;49.074;9.158;2022-12-18T12:36:53;38.00;35.33;22.00
34176;PMS7003;20450;49.074;9.158;2022-12-18T12:39:40;36.67;34.00;22.00
34176;PMS7003;20450;49.074;9.158;2022-12-18T12:42:11;41.00;36.33;23.00
34176;PMS7003;20450;49.074;9.158;2022-12-18T12:44:57;36.67;33.33;22.00
34176;PMS7003;20450;49.074;9.158;2022-12-18T12:47:33;39.67;36.00;23.33
34176;PMS7003;20450;49.074;9.158;2022-12-18T12:50:12;37.67;36.00;24.00
34176;PMS7003;20450;49.074;9.158;2022-12-18T12:52:46;35.33;33.00;21.67
34176;PMS7003;20450;49.074;9.158;2022-12-18T12:55:22;36.33;30.00;19.00
34176;PMS7003;20450;49.074;9.158;2022-12-18T12:57:57;34.67;32.33;22.00
34176;PMS7003;20450;49.074;9.158;2022-12-18T13:00:37;35.67;33.67;23.67
34176;PMS7003;20450;49.074;9.158;2022-12-18T13:03:20;21.67;18.33;10.67
34176;PMS7003;20450;49.074;9.158;2022-12-18T13:06:08;33.00;30.67;19.67
34176;PMS7003;20450;49.074;9.158;2022-12-18T13:08:56;40.67;35.33;22.00
34176;PMS7003;20450;49.074;9.158;2022-12-18T13:11:34;39.33;35.33;23.00
34176;PMS7003;20450;49.074;9.158;2022-12-18T13:14:17;38.00;34.67;22.00
34176;PMS7003;20450;49.074;9.158;2022-12-18T13:16:50;32.33;32.00;22.00
34176;PMS7003;20450;49.074;9.158;2022-12-18T13:19:21;36.67;32.33;22.00
34176;PMS7003;20450;49.074;9.158;2022-12-18T13:21:52;36.33;32.67;21.67
34176;PMS7003;20450;49.074;9.158;2022-12-18T13:24:23;41.00;35.00;22.67
34176;PMS7003;20450;49.074;9.158;2022-12-18T13:26:56;31.00;29.33;19.00
34176;PMS7003;20450;49.074;9.158;2022-12-18T13:29:40;37.33;35.33;21.67
34176;PMS7003;20450;49.074;9.158;2022-12-18T13:32:19;33.33;26.67;19.00
34176;PMS7003;20450;49.074;9.158;2022-12-18T13:38:16;36.67;35.67;24.00
34176;PMS7003;20450;49.074;9.158;2022-12-18T13:40:53;38.67;35.67;21.67
34176;PMS7003;20450;49.074;9.158;2022-12-18T13:43:25;36.00;33.33;22.00
34176;PMS7003;20450;49.074;9.158;2022-12-18T13:45:59;40.67;34.67;23.00
34176;PMS7003;20450;49.074;9.158;2022-12-18T13:48:31;36.67;34.33;21.00
34176;PMS7003;20450;49.074;9.158;2022-12-18T13:51:03;32.33;31.00;21.33
34176;PMS7003;20450;49.074;9.158;2022-12-18T13:53:35;31.00;30.00;20.67
34176;PMS7003;20450;49.074;9.158;2022-12-18T13:56:15;37.00;33.00;22.67
34176;PMS7003;20450;49.074;9.158;2022-12-18T13:58:44;35.00;28.33;17.33
34176;PMS7003;20450;49.074;9.158;2022-12-18T14:01:21;35.67;35.00;23.33
34176;PMS7003;20450;49.074;9.158;2022-12-18T14:03:49;37.67;35.00;23.00
34176;PMS7003;20450;49.074;9.158;2022-12-18T14:06:16;33.00;32.00;21.00
34176;PMS7003;20450;49.074;9.158;2022-12-18T14:08:43;38.00;36.67;24.00
34176;PMS7003;20450;49.074;9.158;2022-12-18T14:11:18;31.33;29.33;20.00
34176;PMS7003;20450;49.074;9.158;2022-12-18T14:13:53;34.33;30.67;20.33
34176;PMS7003;20450;49.074;9.158;2022-12-18T14:16:20;35.67;35.33;23.00
34176;PMS7003;20450;49.074;9.158;2022-12-18T14:18:48;32.33;31.00;21.00
34176;PMS7003;20450;49.074;9.158;2022-12-18T14:21:23;37.33;29.33;21.67
34176;PMS7003;20450;49.074;9.158;2022-12-18T14:24:02;39.33;35.33;22.67
34176;PMS7003;20450;49.074;9.158;2022-12-18T14:26:38;30.33;28.00;17.00